createdAt,value
2017-12-11T00:01:17.342Z,2.23
2017-12-11T00:06:18.803Z,2.40
2017-12-11T00:11:20.314Z,2.00
2017-12-11T00:16:21.854Z,2.40
2017-12-11T00:21:23.323Z,1.93
2017-12-11T00:26:24.822Z,1.67
2017-12-11T00:31:26.294Z,1.30
2017-12-11T00:36:27.893Z,2.30
2017-12-11T00:41:29.370Z,2.30
2017-12-11T00:46:30.870Z,1.60
2017-12-11T00:51:32.399Z,1.73
2017-12-11T00:56:33.866Z,2.07
2017-12-11T01:01:35.346Z,1.67
2017-12-11T01:06:37.613Z,1.50
2017-12-11T01:11:39.070Z,1.60
2017-12-11T01:16:40.555Z,1.77
2017-12-11T01:21:42.035Z,1.63
2017-12-11T01:26:43.546Z,1.80
2017-12-11T01:31:45.051Z,1.70
2017-12-11T01:36:46.699Z,1.37
2017-12-11T01:41:48.935Z,1.40
2017-12-11T01:46:50.486Z,2.20
2017-12-11T01:51:52.039Z,1.93
2017-12-11T01:56:53.603Z,1.80
2017-12-11T02:01:55.070Z,1.83
2017-12-11T02:06:56.567Z,1.23
2017-12-11T02:11:58.061Z,1.37
2017-12-11T02:16:59.607Z,1.67
2017-12-11T02:22:01.887Z,1.77
2017-12-11T02:27:03.442Z,1.63
2017-12-11T02:32:04.970Z,1.60
2017-12-11T02:37:07.402Z,1.60
2017-12-11T02:42:08.941Z,1.40
2017-12-11T02:47:11.203Z,1.20
2017-12-11T02:52:12.744Z,1.40
2017-12-11T02:57:14.250Z,1.40
2017-12-11T03:02:15.695Z,1.40
2017-12-11T03:07:17.195Z,1.60
2017-12-11T03:12:18.674Z,1.00
2017-12-11T03:17:20.190Z,1.20
2017-12-11T03:22:22.390Z,1.27
2017-12-11T03:27:23.865Z,1.47
2017-12-11T03:32:25.366Z,1.27
2017-12-11T03:37:27.034Z,1.40
2017-12-11T03:42:28.491Z,1.17
2017-12-11T03:47:29.998Z,0.90
2017-12-11T03:52:31.451Z,1.43
2017-12-11T03:57:32.914Z,1.23
2017-12-11T04:02:34.394Z,1.60
2017-12-11T04:07:35.847Z,1.50
2017-12-11T04:12:37.299Z,1.00
2017-12-11T04:17:38.782Z,1.23
2017-12-11T04:22:40.227Z,1.20
2017-12-11T04:27:42.418Z,1.23
2017-12-11T04:32:43.867Z,1.20
2017-12-11T04:37:46.239Z,1.47
2017-12-11T04:42:47.686Z,1.37
2017-12-11T04:47:49.129Z,1.10
2017-12-11T04:52:50.553Z,1.47
2017-12-11T04:57:52.000Z,1.00
2017-12-11T05:02:53.502Z,1.30
2017-12-11T05:07:55.011Z,1.03
2017-12-11T05:12:56.476Z,1.00
2017-12-11T05:17:57.966Z,0.90
2017-12-11T05:22:59.437Z,1.40
2017-12-11T05:28:01.674Z,1.13
2017-12-11T05:33:03.882Z,1.27
2017-12-11T05:38:05.581Z,1.33
2017-12-11T05:43:07.091Z,1.23
2017-12-11T05:48:08.573Z,1.40
2017-12-11T05:53:10.078Z,1.33
2017-12-11T05:58:12.502Z,1.27
2017-12-11T06:03:14.330Z,1.83
2017-12-11T06:08:15.903Z,1.47
2017-12-11T06:13:17.354Z,1.73
2017-12-11T06:18:18.803Z,1.53
2017-12-11T06:23:20.246Z,1.37
2017-12-11T06:28:21.689Z,1.63
2017-12-11T06:33:23.150Z,1.47
2017-12-11T06:38:24.758Z,1.87
2017-12-11T06:43:26.955Z,1.83
2017-12-11T06:48:35.391Z,1.40
2017-12-11T06:53:36.835Z,1.40
2017-12-11T06:58:38.295Z,1.40
2017-12-11T07:03:39.756Z,2.00
2017-12-11T07:08:41.201Z,2.77
2017-12-11T07:13:42.658Z,2.40
2017-12-11T07:18:44.105Z,1.90
2017-12-11T07:23:45.541Z,2.00
2017-12-11T07:28:46.998Z,1.80
2017-12-11T07:33:48.433Z,1.80
2017-12-11T07:38:50.022Z,1.60
2017-12-11T07:43:51.486Z,2.33
2017-12-11T07:48:52.931Z,2.43
2017-12-11T07:53:54.369Z,2.30
2017-12-11T07:58:55.822Z,2.40
2017-12-11T08:03:57.268Z,2.37
2017-12-11T08:08:58.729Z,1.90
2017-12-11T08:14:00.171Z,1.70
2017-12-11T08:19:01.606Z,1.97
2017-12-11T08:24:03.195Z,2.00
2017-12-11T08:29:04.678Z,1.93
2017-12-11T08:34:06.118Z,2.27
2017-12-11T08:39:07.714Z,2.30
2017-12-11T08:44:09.338Z,2.10
2017-12-11T08:49:10.790Z,2.20
2017-12-11T08:54:12.239Z,2.73
2017-12-11T08:59:14.470Z,2.00
2017-12-11T09:04:16.141Z,2.73
2017-12-11T09:09:17.682Z,2.20
2017-12-11T09:14:19.255Z,2.90
2017-12-11T09:19:20.722Z,3.50
2017-12-11T09:24:23.038Z,3.57
2017-12-11T09:29:24.664Z,3.40
2017-12-11T09:34:26.125Z,3.13
2017-12-11T09:39:27.762Z,2.87
2017-12-11T09:44:29.252Z,3.60
2017-12-11T09:49:30.970Z,4.17
2017-12-11T09:54:32.691Z,4.00
2017-12-11T09:59:34.187Z,3.13
2017-12-11T10:04:35.682Z,3.20
2017-12-11T10:09:38.689Z,4.17
2017-12-11T10:14:40.224Z,3.73
2017-12-11T10:19:41.918Z,4.37
2017-12-11T10:24:44.114Z,3.53
2017-12-11T10:29:45.581Z,4.90
2017-12-11T10:34:47.038Z,4.37
2017-12-11T10:39:48.642Z,3.20
2017-12-11T10:44:50.098Z,3.87
2017-12-11T10:49:51.567Z,4.40
2017-12-11T10:54:53.022Z,4.37
2017-12-11T10:59:55.246Z,3.90
2017-12-11T11:04:56.717Z,8.00
2017-12-11T11:09:58.158Z,9.50
2017-12-11T11:14:59.594Z,6.90
2017-12-11T11:20:01.062Z,7.43
2017-12-11T11:25:03.302Z,5.60
2017-12-11T11:30:04.819Z,7.10
2017-12-11T11:35:06.274Z,6.93
2017-12-11T11:40:07.929Z,13.40
2017-12-11T11:45:09.370Z,23.10
2017-12-11T11:50:10.827Z,13.40
2017-12-11T11:55:12.317Z,10.43
2017-12-11T12:00:13.842Z,11.67
2017-12-11T12:05:15.358Z,10.53
2017-12-11T12:10:16.827Z,7.90
2017-12-11T12:15:18.403Z,7.67
2017-12-11T12:20:19.996Z,7.00
2017-12-11T12:25:22.366Z,8.10
2017-12-11T12:30:25.310Z,8.00
2017-12-11T12:35:26.885Z,8.00
2017-12-11T12:40:28.543Z,7.37
2017-12-11T12:45:30.877Z,5.03
2017-12-11T12:50:32.351Z,5.70
2017-12-11T12:55:33.790Z,5.40
2017-12-11T13:00:35.294Z,8.13
2017-12-11T13:05:36.761Z,5.20
2017-12-11T13:10:38.943Z,5.83
2017-12-11T13:15:40.435Z,14.10
2017-12-11T13:20:48.726Z,7.77
2017-12-11T13:25:50.202Z,6.87
2017-12-11T13:30:52.395Z,9.00
2017-12-11T13:35:53.838Z,43.47
2017-12-11T13:40:56.200Z,9.80
2017-12-11T13:45:58.439Z,9.90
2017-12-11T13:50:59.895Z,10.43
2017-12-11T13:56:01.524Z,12.63
2017-12-11T14:01:02.971Z,16.40
2017-12-11T14:06:05.304Z,10.93
2017-12-11T14:11:06.841Z,12.63
2017-12-11T14:16:09.028Z,7.90
2017-12-11T14:21:10.491Z,6.73
2017-12-11T14:26:11.935Z,6.87
2017-12-11T14:31:13.376Z,7.20
2017-12-11T14:36:15.585Z,40.90
2017-12-11T14:41:17.082Z,9.10
2017-12-11T14:46:18.538Z,9.90
2017-12-11T14:51:21.468Z,10.00
2017-12-11T14:56:22.910Z,16.80
2017-12-11T15:01:24.362Z,8.50
2017-12-11T15:06:26.554Z,9.23
2017-12-11T15:11:28.013Z,14.90
2017-12-11T15:16:29.534Z,12.20
2017-12-11T15:21:31.058Z,10.17
2017-12-11T15:26:32.546Z,9.47
2017-12-11T15:31:34.739Z,13.70
2017-12-11T15:36:36.235Z,17.37
2017-12-11T15:41:37.803Z,16.20
2017-12-11T15:46:39.278Z,9.70
2017-12-11T15:51:40.785Z,11.17
2017-12-11T15:56:42.265Z,15.40
2017-12-11T16:01:43.728Z,14.17
2017-12-11T16:06:46.764Z,17.83
2017-12-11T16:11:48.292Z,12.53
2017-12-11T16:16:49.777Z,10.60
2017-12-11T16:21:51.270Z,11.17
2017-12-11T16:26:52.755Z,11.80
2017-12-11T16:31:54.250Z,9.60
2017-12-11T16:36:55.734Z,10.20
2017-12-11T16:41:58.887Z,8.90
2017-12-11T16:47:00.363Z,9.93
2017-12-11T16:52:01.823Z,9.53
2017-12-11T16:57:03.318Z,10.97
2017-12-11T17:02:04.827Z,10.20
2017-12-11T17:07:07.055Z,10.00
2017-12-11T17:12:08.523Z,9.10
2017-12-11T17:17:09.990Z,8.43
2017-12-11T17:22:13.114Z,9.60
2017-12-11T17:27:14.566Z,11.60
2017-12-11T17:32:16.739Z,9.30
2017-12-11T17:37:18.199Z,10.60
2017-12-11T17:42:19.733Z,11.47
2017-12-11T17:47:21.953Z,9.77
2017-12-11T17:52:24.146Z,10.10
2017-12-11T17:57:25.629Z,11.57
2017-12-11T18:02:27.171Z,9.90
2017-12-11T18:07:28.631Z,10.83
2017-12-11T18:12:30.844Z,12.60
2017-12-11T18:17:32.306Z,11.23
2017-12-11T18:22:33.780Z,19.83
2017-12-11T18:27:35.231Z,15.40
2017-12-11T18:32:36.703Z,12.20
2017-12-11T18:37:38.154Z,16.30
2017-12-11T18:42:40.390Z,12.80
2017-12-11T18:47:41.878Z,11.20
2017-12-11T18:52:43.367Z,11.37
2017-12-11T18:57:44.906Z,9.43
2017-12-11T19:02:46.382Z,12.00
2017-12-11T19:07:47.901Z,9.40
2017-12-11T19:12:49.402Z,10.90
2017-12-11T19:17:50.854Z,9.27
2017-12-11T19:22:52.339Z,8.20
2017-12-11T19:27:53.879Z,7.87
2017-12-11T19:32:55.416Z,8.20
2017-12-11T19:37:57.677Z,10.23
2017-12-11T19:42:59.329Z,11.33
2017-12-11T19:48:01.065Z,10.83
2017-12-11T19:53:02.763Z,9.30
2017-12-11T19:58:04.339Z,8.53
2017-12-11T20:03:07.204Z,7.90
2017-12-11T20:08:09.223Z,9.80
2017-12-11T20:13:11.583Z,11.83
2017-12-11T20:18:13.196Z,8.27
2017-12-11T20:23:15.206Z,8.53
2017-12-11T20:28:16.795Z,7.90
2017-12-11T20:33:18.243Z,10.20
2017-12-11T20:38:20.448Z,11.90
2017-12-11T20:43:21.946Z,7.53
2017-12-11T20:48:23.439Z,11.70
2017-12-11T20:53:24.874Z,7.67
2017-12-11T20:58:26.386Z,6.33
2017-12-11T21:03:27.895Z,5.67
2017-12-11T21:08:29.366Z,5.40
2017-12-11T21:13:31.591Z,6.40
2017-12-11T21:18:33.855Z,5.07
2017-12-11T21:23:35.333Z,5.50
2017-12-11T21:28:37.534Z,6.10
2017-12-11T21:33:39.010Z,20.80
2017-12-11T21:38:40.499Z,7.60
2017-12-11T21:43:42.115Z,6.53
2017-12-11T21:48:44.374Z,7.07
2017-12-11T21:53:46.559Z,5.90
2017-12-11T21:58:48.038Z,5.63
2017-12-11T22:03:49.534Z,6.20
2017-12-11T22:08:51.743Z,6.03
2017-12-11T22:13:54.711Z,9.57
2017-12-11T22:18:56.206Z,5.67
2017-12-11T22:23:57.686Z,5.70
2017-12-11T22:28:59.157Z,6.50
2017-12-11T22:34:01.375Z,6.10
2017-12-11T22:39:02.920Z,6.67
2017-12-11T22:44:04.458Z,6.10
2017-12-11T22:49:05.966Z,11.80
2017-12-11T22:54:07.442Z,5.87
2017-12-11T22:59:08.931Z,5.20
2017-12-11T23:04:10.390Z,5.33
2017-12-11T23:09:12.621Z,5.80
2017-12-11T23:14:14.115Z,5.80
2017-12-11T23:19:15.574Z,4.20
2017-12-11T23:24:17.017Z,4.83
2017-12-11T23:29:18.485Z,8.17
2017-12-11T23:34:20.458Z,5.10
2017-12-11T23:39:22.237Z,4.77
2017-12-11T23:44:24.515Z,5.17
2017-12-11T23:49:25.978Z,4.50
2017-12-11T23:54:33.383Z,4.53
2017-12-11T23:59:34.826Z,7.10
